Time;durP1;ratioP1;P1;durP2;ratioP2;P2;SDS_P1;SDS_P2;PMS_P1;PMS_P2;Temp;Humidity;BMP_temperature;BMP_pressure;BME280_temperature;BME280_humidity;BME280_pressure;Samples;Min_cycle;Max_cycle;Signal;HPM_P1;HPM_P2
2022/05/14 00:01:29;;;;;;;9.05;4.58;;;;;;;14.35;59.33;99047.84;1771720;81;21163;-80
2022/05/14 00:03:56;;;;;;;9.58;4.00;;;;;;;14.27;59.52;99048.83;1773546;79;21695;-79
2022/05/14 00:06:24;;;;;;;10.08;4.28;;;;;;;14.20;59.89;99049.45;1771399;81;21093;-78
2022/05/14 00:08:52;;;;;;;11.20;3.35;;;;;;;14.14;60.60;99039.80;1771879;80;20934;-80
2022/05/14 00:14:11;;;;;;;5.10;2.75;;;;;;;14.09;61.38;99037.29;1803203;79;20960;-81
2022/05/14 00:16:40;;;;;;;8.93;2.90;;;;;;;14.19;61.40;99030.41;1805172;79;21464;-81
2022/05/14 00:19:11;;;;;;;8.93;3.00;;;;;;;14.24;61.35;99017.08;1804645;79;21015;-81
2022/05/14 00:21:39;;;;;;;4.97;2.27;;;;;;;14.31;61.33;99020.61;1803292;79;21429;-78
2022/05/14 00:24:10;;;;;;;11.97;3.67;;;;;;;14.38;61.21;99017.20;1801560;79;20987;-81
2022/05/14 00:26:43;;;;;;;10.43;3.00;;;;;;;14.44;61.06;99017.18;1803273;79;20983;-71
2022/05/14 00:29:13;;;;;;;9.65;2.90;;;;;;;14.47;61.06;99012.88;1798308;79;21065;-77
2022/05/14 00:31:41;;;;;;;8.68;3.58;;;;;;;14.48;61.04;99017.27;1787883;79;21089;-80
2022/05/14 00:34:09;;;;;;;8.58;3.20;;;;;;;14.48;61.40;99014.50;1801073;79;21392;-78
2022/05/14 00:36:35;;;;;;;5.15;3.37;;;;;;;14.40;61.69;99013.50;1804845;79;20940;-80
2022/05/14 00:39:02;;;;;;;9.85;4.42;;;;;;;14.29;61.99;99018.80;1804835;78;21119;-81
2022/05/14 00:41:29;;;;;;;15.68;3.15;;;;;;;14.21;62.48;99013.64;1776268;79;21433;-78
2022/05/14 00:43:59;;;;;;;7.37;2.70;;;;;;;14.18;62.98;99012.16;1775405;79;21006;-80
2022/05/14 00:46:51;;;;;;;9.93;2.87;;;;;;;14.05;63.13;99011.45;1771415;81;20958;-77
2022/05/14 00:49:22;;;;;;;9.35;3.52;;;;;;;13.99;63.55;99016.44;1660592;85;21127;-80
2022/05/14 00:51:49;;;;;;;14.63;3.47;;;;;;;13.96;63.91;99014.39;1664387;79;21291;-71
2022/05/14 00:54:19;;;;;;;9.20;4.15;;;;;;;13.78;64.06;99014.73;1800374;79;21031;-75
2022/05/14 00:56:50;;;;;;;5.90;2.83;;;;;;;13.61;64.55;99010.31;1772146;79;21092;-77
2022/05/14 00:59:20;;;;;;;4.45;3.12;;;;;;;13.50;65.27;99008.02;1767748;79;21019;-78
2022/05/14 01:01:48;;;;;;;13.72;2.80;;;;;;;13.46;65.96;99007.10;1802169;79;21526;-76
2022/05/14 01:04:17;;;;;;;10.58;4.12;;;;;;;13.47;66.31;99003.20;1804703;79;21722;-79
2022/05/14 01:06:53;;;;;;;6.47;2.98;;;;;;;13.46;66.52;99000.19;1802500;79;20916;-78
2022/05/14 01:09:21;;;;;;;10.90;3.85;;;;;;;13.48;66.63;99000.64;1800389;79;20880;-76
2022/05/14 01:11:54;;;;;;;10.80;3.45;;;;;;;13.48;66.71;98994.30;1784933;79;21527;-78
2022/05/14 01:14:26;;;;;;;14.53;3.20;;;;;;;13.39;66.88;98991.10;1802913;79;21558;-76
2022/05/14 01:16:56;;;;;;;11.50;3.67;;;;;;;13.30;67.42;98982.73;1799275;79;21086;-76
2022/05/14 01:19:24;;;;;;;12.88;3.90;;;;;;;13.29;67.78;98982.52;1784906;79;21010;-75
2022/05/14 01:22:17;;;;;;;6.97;3.50;;;;;;;13.32;68.03;98986.77;1769899;81;21053;-77
2022/05/14 01:28:05;;;;;;;11.60;3.45;;;;;;;13.29;68.12;98978.37;1747967;79;21357;-79
2022/05/14 01:30:33;;;;;;;5.80;3.62;;;;;;;13.19;68.46;98979.08;1802875;79;21027;-77
2022/05/14 01:33:07;;;;;;;5.37;3.33;;;;;;;13.20;68.68;98978.51;1801809;79;20991;-75
2022/05/14 01:35:37;;;;;;;4.97;2.72;;;;;;;13.21;68.96;98979.54;1802430;79;20936;-80
2022/05/14 01:38:05;;;;;;;5.78;2.92;;;;;;;13.21;68.94;98979.54;1800945;78;20915;-73
2022/05/14 01:40:35;;;;;;;5.28;3.15;;;;;;;13.18;69.11;98979.43;1771241;80;20856;-79
2022/05/14 01:43:06;;;;;;;5.62;3.27;;;;;;;13.11;69.38;98971.73;1772591;81;21116;-79
2022/05/14 01:45:34;;;;;;;6.75;3.00;;;;;;;13.08;69.52;98970.48;1772677;81;20928;-79
2022/05/14 01:48:03;;;;;;;7.62;3.80;;;;;;;13.02;69.68;98971.87;1774859;79;20958;-79
2022/05/14 01:50:33;;;;;;;5.95;3.35;;;;;;;12.97;69.81;98974.31;1773467;80;20887;-80
2022/05/14 01:53:02;;;;;;;11.75;3.02;;;;;;;12.96;70.13;98974.66;1771836;81;20958;-78
2022/05/14 01:55:30;;;;;;;9.13;3.45;;;;;;;12.91;70.14;98974.33;1771058;81;21749;-78
2022/05/14 01:57:57;;;;;;;7.45;3.60;;;;;;;12.86;70.37;98975.95;1774356;79;20998;-77
2022/05/14 02:00:27;;;;;;;6.30;3.60;;;;;;;12.79;70.63;98979.31;1802554;79;21069;-77
2022/05/14 02:02:58;;;;;;;7.28;3.10;;;;;;;12.71;71.06;98976.10;1802681;79;21010;-77
2022/05/14 02:05:27;;;;;;;6.40;2.55;;;;;;;12.66;71.50;98972.98;1786007;79;21030;-76
2022/05/14 02:07:57;;;;;;;8.43;3.45;;;;;;;12.66;71.88;98975.74;1804052;79;20966;-79
2022/05/14 02:10:25;;;;;;;7.78;3.80;;;;;;;12.69;71.80;98975.64;1805137;79;20888;-78
2022/05/14 02:12:53;;;;;;;13.80;5.20;;;;;;;12.73;71.78;98971.83;1799588;79;20987;-74
2022/05/14 02:15:21;;;;;;;7.35;3.95;;;;;;;12.74;71.46;98967.11;1771479;81;21035;-78
2022/05/14 02:17:51;;;;;;;7.80;4.12;;;;;;;12.69;71.50;98975.07;1743307;81;21637;-74
2022/05/14 02:20:20;;;;;;;9.23;5.20;;;;;;;12.68;71.64;98974.01;1772938;79;21138;-77
2022/05/14 02:22:51;;;;;;;8.05;4.58;;;;;;;12.66;71.73;98968.27;1773591;79;21467;-75
2022/05/14 02:25:20;;;;;;;;;;;;;;;12.62;71.83;98964.57;1803960;79;21003;-74
2022/05/14 02:27:49;;;;;;;10.85;6.22;;;;;;;12.63;72.01;98966.20;1803218;79;20905;-78
2022/05/14 02:30:17;;;;;;;12.35;6.50;;;;;;;12.60;72.06;98965.52;1802195;79;21582;-79
2022/05/14 02:32:44;;;;;;;9.15;5.55;;;;;;;12.58;72.33;98963.67;1803377;79;21174;-78
2022/05/14 02:35:13;;;;;;;10.45;6.15;;;;;;;12.61;72.73;98961.59;1770776;79;21078;-77
2022/05/14 02:37:39;;;;;;;12.10;5.78;;;;;;;12.65;72.82;98965.28;1771810;80;21534;-76
2022/05/14 02:40:10;;;;;;;9.60;5.35;;;;;;;12.69;72.86;98964.58;1783858;79;21002;-78
2022/05/14 02:42:39;;;;;;;12.65;6.08;;;;;;;12.66;72.96;98955.83;1804470;79;21023;-78
2022/05/14 02:45:09;;;;;;;9.20;5.22;;;;;;;12.66;73.37;98955.83;1799587;79;21289;-76
2022/05/14 02:47:36;;;;;;;9.85;5.72;;;;;;;12.71;73.55;98955.38;1803009;79;20920;-79
2022/05/14 02:50:05;;;;;;;9.75;5.53;;;;;;;12.77;73.81;98951.20;1802407;79;21019;-79
2022/05/14 02:52:34;;;;;;;14.55;5.62;;;;;;;12.78;74.10;98948.66;1775852;79;21000;-79
2022/05/14 02:55:03;;;;;;;12.82;6.50;;;;;;;12.82;74.49;98951.53;1771184;79;21491;-79
2022/05/14 02:57:29;;;;;;;10.43;5.90;;;;;;;12.88;74.51;98950.16;1771384;81;21894;-76
2022/05/14 02:59:59;;;;;;;14.03;5.45;;;;;;;12.90;74.62;98947.25;1770359;80;21094;-79
2022/05/14 03:02:27;;;;;;;13.35;5.83;;;;;;;12.95;74.76;98944.03;1783696;80;21001;-78
2022/05/14 03:04:54;;;;;;;10.78;6.08;;;;;;;13.00;74.95;98939.61;1792418;80;21054;-79
2022/05/14 03:07:23;;;;;;;12.70;5.90;;;;;;;13.06;75.06;98938.23;1793947;80;21511;-79
2022/05/14 03:09:50;;;;;;;15.83;5.90;;;;;;;13.13;75.08;98941.77;1794698;80;21111;-80
2022/05/14 03:12:21;;;;;;;7.53;5.15;;;;;;;13.19;75.12;98946.45;1790286;79;21050;-78
2022/05/14 03:14:49;;;;;;;13.38;5.35;;;;;;;13.23;74.86;98950.14;1766687;80;20912;-75
2022/05/14 03:17:21;;;;;;;11.45;5.30;;;;;;;13.27;74.77;98956.59;1768500;80;21006;-78
2022/05/14 03:19:49;;;;;;;13.80;5.67;;;;;;;13.33;74.81;98947.44;1795108;80;20848;-80
2022/05/14 03:22:17;;;;;;;14.33;5.40;;;;;;;13.34;74.94;98949.85;1790648;79;21019;-79
2022/05/14 03:24:52;;;;;;;16.07;6.37;;;;;;;13.34;74.98;98947.69;1778583;80;20988;-77
2022/05/14 03:27:19;;;;;;;14.13;5.83;;;;;;;13.32;75.17;98950.81;1775519;80;21030;-78
2022/05/14 03:29:51;;;;;;;7.78;4.67;;;;;;;13.38;75.23;98951.34;1777616;80;21014;-77
2022/05/14 03:32:19;;;;;;;8.95;4.62;;;;;;;13.42;75.14;98947.30;1755279;80;21587;-79
2022/05/14 03:34:47;;;;;;;10.93;4.97;;;;;;;13.39;74.96;98946.05;1755138;80;21244;-80
2022/05/14 03:37:14;;;;;;;10.60;4.28;;;;;;;13.36;75.06;98947.55;1777367;80;20993;-79
2022/05/14 03:39:41;;;;;;;11.12;4.78;;;;;;;13.43;75.37;98951.66;1776914;80;21033;-75
2022/05/14 03:42:08;;;;;;;9.03;4.15;;;;;;;13.56;75.43;98945.53;1778022;80;21754;-79
2022/05/14 03:44:34;;;;;;;12.90;5.45;;;;;;;13.68;75.34;98947.42;1777768;80;21064;-79
2022/05/14 03:47:02;;;;;;;15.13;4.53;;;;;;;13.78;75.12;98940.55;1777224;80;21184;-76
2022/05/14 03:49:32;;;;;;;10.05;4.33;;;;;;;13.85;75.12;98937.97;1777664;80;20979;-80
2022/05/14 03:51:58;;;;;;;10.98;4.12;;;;;;;13.87;75.24;98936.44;1776895;80;21026;-75
2022/05/14 03:54:28;;;;;;;6.75;4.22;;;;;;;13.91;75.45;98933.77;1778583;80;20900;-80
2022/05/14 03:56:56;;;;;;;8.93;4.40;;;;;;;13.96;75.50;98934.07;1776738;80;21128;-78
2022/05/14 03:59:26;;;;;;;11.30;3.98;;;;;;;13.97;75.67;98936.48;1777275;80;21781;-79
2022/05/14 04:01:59;;;;;;;13.62;3.95;;;;;;;13.97;75.70;98939.25;1774459;80;20956;-79
2022/05/14 04:04:30;;;;;;;7.92;3.92;;;;;;;13.97;76.10;98944.01;1790603;80;21504;-79
2022/05/14 04:07:01;;;;;;;9.83;3.98;;;;;;;14.00;76.64;98949.61;1766620;80;21037;-77
2022/05/14 04:09:31;;;;;;;12.80;4.20;;;;;;;14.05;77.01;98951.90;1794259;80;20997;-80
2022/05/14 04:11:59;;;;;;;10.98;3.98;;;;;;;14.13;76.93;98945.38;1793950;80;21104;-75
2022/05/14 04:14:25;;;;;;;9.93;4.35;;;;;;;14.30;76.63;98947.55;1790008;80;21018;-77
2022/05/14 04:16:55;;;;;;;12.65;4.08;;;;;;;14.50;75.63;98942.86;1793463;80;21108;-80
2022/05/14 04:19:21;;;;;;;6.70;3.50;;;;;;;14.69;74.38;98941.29;1793017;80;21673;-77
2022/05/14 04:21:48;;;;;;;9.85;4.17;;;;;;;14.85;73.29;98938.52;1794153;80;20938;-79
2022/05/14 04:24:16;;;;;;;9.28;3.87;;;;;;;14.99;72.30;98938.02;1790878;79;21046;-79
2022/05/14 04:26:44;;;;;;;12.88;4.20;;;;;;;15.06;71.90;98920.11;1793984;80;21002;-78
2022/05/14 04:29:11;;;;;;;7.67;3.62;;;;;;;15.16;71.33;98920.70;1794725;80;21133;-77
2022/05/14 04:31:43;;;;;;;15.30;3.62;;;;;;;15.27;70.36;98926.48;1767883;80;21459;-80
2022/05/14 04:34:12;;;;;;;10.32;3.25;;;;;;;15.35;69.92;98918.51;1793737;79;21482;-79
2022/05/14 04:36:42;;;;;;;10.75;3.40;;;;;;;15.43;69.49;98923.02;1767218;80;21069;-78
2022/05/14 04:39:09;;;;;;;5.80;3.60;;;;;;;15.52;68.86;98921.41;1788096;80;21141;-79
2022/05/14 04:41:40;;;;;;;12.47;4.40;;;;;;;15.60;68.46;98925.67;1783890;80;21483;-79
2022/05/14 04:44:09;;;;;;;;;;;;;;;15.65;68.04;98924.80;1795718;80;21034;-79
2022/05/14 04:46:39;;;;;;;17.12;4.00;;;;;;;15.71;68.00;98923.92;1793847;80;20200;-77
2022/05/14 04:49:06;;;;;;;10.03;4.28;;;;;;;15.74;68.00;98924.56;1767424;80;21468;-78
2022/05/14 04:51:34;;;;;;;17.87;3.90;;;;;;;15.78;67.90;98928.19;1791621;80;20975;-79
2022/05/14 04:54:01;;;;;;;10.60;3.98;;;;;;;15.81;67.93;98926.05;1791917;80;21042;-79
2022/05/14 04:56:29;;;;;;;13.25;4.72;;;;;;;15.86;68.30;98936.66;1780280;80;20998;-79
2022/05/14 04:58:57;;;;;;;9.78;4.90;;;;;;;15.87;68.30;98943.22;1766363;80;21094;-76
2022/05/14 05:01:24;;;;;;;11.20;4.80;;;;;;;15.88;68.06;98944.03;1788527;79;21044;-77
2022/05/14 05:03:51;;;;;;;13.75;4.47;;;;;;;15.86;67.59;98943.02;1809342;79;20979;-79
2022/05/14 05:06:18;;;;;;;13.08;5.30;;;;;;;15.87;67.67;98949.36;1806809;79;20972;-74
2022/05/14 05:08:46;;;;;;;13.50;5.75;;;;;;;15.89;67.35;98969.23;1807762;79;21017;-77
2022/05/14 05:11:18;;;;;;;14.28;5.17;;;;;;;15.85;67.11;98973.34;1785783;79;20983;-75
2022/05/14 05:13:48;;;;;;;13.08;5.28;;;;;;;15.82;66.77;98965.17;1808402;79;21096;-70
2022/05/14 05:16:17;;;;;;;9.33;5.00;;;;;;;15.80;67.01;98966.70;1807870;79;21026;-77
2022/05/14 05:18:45;;;;;;;12.43;4.22;;;;;;;15.76;66.66;98954.73;1800832;79;21558;-77
2022/05/14 05:21:11;;;;;;;12.70;4.42;;;;;;;15.76;66.45;98942.23;1804250;79;20979;-76
2022/05/14 05:23:38;;;;;;;7.20;4.17;;;;;;;15.74;66.00;98945.39;1809533;79;21003;-76
2022/05/14 05:26:07;;;;;;;11.90;4.85;;;;;;;15.76;66.28;98958.91;1810890;79;21076;-81
2022/05/14 05:28:36;;;;;;;6.90;3.75;;;;;;;15.77;65.66;98946.03;1802923;79;20968;-79
2022/05/14 05:31:02;;;;;;;8.20;4.00;;;;;;;15.75;65.27;98940.04;1784654;79;21616;-77
2022/05/14 05:33:36;;;;;;;;;;;;;;;15.75;65.85;98951.14;1811734;79;21498;-80
2022/05/14 05:36:06;;;;;;;16.70;4.97;;;;;;;15.79;65.92;98953.41;1806435;79;20166;-75
2022/05/14 05:38:37;;;;;;;10.78;4.97;;;;;;;15.81;65.46;98944.71;1786796;79;20967;-75
2022/05/14 05:41:12;;;;;;;9.15;3.85;;;;;;;15.81;65.54;98948.27;1778002;80;20923;-78
2022/05/14 05:43:39;;;;;;;7.97;4.10;;;;;;;15.88;65.26;98949.59;1778964;80;21030;-77
2022/05/14 05:46:13;;;;;;;12.80;5.37;;;;;;;15.90;64.95;98951.42;1806344;79;20955;-82
2022/05/14 05:48:43;;;;;;;29.45;4.87;;;;;;;15.90;64.49;98949.42;1773199;79;20969;-80
2022/05/14 05:51:18;;;;;;;15.70;4.00;;;;;;;15.93;64.66;98949.28;1810379;79;20955;-82
2022/05/14 05:56:47;;;;;;;9.38;3.52;;;;;;;15.99;64.48;98949.20;1804238;79;22396;-78
2022/05/14 05:59:18;;;;;;;7.78;3.90;;;;;;;16.04;64.37;98957.23;1801241;79;21039;-79
2022/05/14 06:01:56;;;;;;;7.50;3.45;;;;;;;16.06;63.94;98942.39;1763132;79;20927;-78
2022/05/14 06:04:24;;;;;;;6.37;3.80;;;;;;;16.09;64.17;98943.61;1793636;79;21064;-79
2022/05/14 06:06:52;;;;;;;6.97;3.85;;;;;;;16.14;64.35;98943.30;1786516;79;21061;-74
2022/05/14 06:09:45;;;;;;;14.28;4.03;;;;;;;16.17;63.59;98946.72;1777833;79;21046;-79
2022/05/14 06:12:38;;;;;;;9.58;4.40;;;;;;;16.15;63.08;98944.92;1735061;79;20975;-84
2022/05/14 06:15:18;;;;;;;8.70;4.35;;;;;;;16.15;62.81;98942.14;1801093;79;21014;-82
2022/05/14 06:17:56;;;;;;;9.95;4.33;;;;;;;16.17;62.87;98944.55;1796152;79;22218;-79
2022/05/14 06:20:39;;;;;;;10.60;4.20;;;;;;;16.22;63.10;98942.03;1798859;79;21002;-85
2022/05/14 06:23:09;;;;;;;6.78;4.05;;;;;;;16.27;63.38;98939.75;1802530;79;20960;-85
2022/05/14 06:25:45;;;;;;;6.65;3.80;;;;;;;16.33;63.41;98935.23;1787244;79;21005;-76
2022/05/14 06:28:13;;;;;;;7.75;3.95;;;;;;;16.39;63.10;98937.92;1809706;79;21018;-78
2022/05/14 06:30:43;;;;;;;8.95;5.00;;;;;;;16.46;63.34;98939.44;1810870;79;21927;-81
2022/05/14 06:33:15;;;;;;;9.38;4.33;;;;;;;16.53;63.35;98942.30;1809542;79;21015;-81
2022/05/14 06:35:50;;;;;;;13.05;4.20;;;;;;;16.60;62.40;98942.20;1779284;80;20907;-84
2022/05/14 06:38:18;;;;;;;18.45;4.95;;;;;;;16.58;62.02;98948.11;1779480;80;20970;-83
2022/05/14 06:40:53;;;;;;;8.58;5.17;;;;;;;16.60;62.03;98940.81;1799511;79;20908;-83
2022/05/14 06:43:33;;;;;;;13.58;4.78;;;;;;;16.65;62.25;98953.01;1808617;79;21323;-83
2022/05/14 06:46:09;;;;;;;12.20;5.22;;;;;;;16.71;61.97;98950.11;1757524;80;20966;-77
2022/05/14 06:48:49;;;;;;;10.88;5.10;;;;;;;16.75;61.52;98954.33;1796100;79;21636;-83
2022/05/14 06:54:22;;;;;;;15.98;5.55;;;;;;;16.82;61.54;98966.92;1794344;79;21482;-81
2022/05/14 06:57:02;;;;;;;12.82;5.20;;;;;;;16.86;60.99;98973.94;1811601;79;20955;-79
2022/05/14 07:00:09;;;;;;;12.47;5.03;;;;;;;16.90;60.98;98969.23;1809331;79;20864;-85
2022/05/14 07:02:51;;;;;;;51.28;8.83;;;;;;;16.94;61.32;98970.67;1805724;79;20963;-82
2022/05/14 07:08:05;;;;;;;13.22;5.62;;;;;;;17.08;61.34;98978.39;1804971;79;20975;-80
2022/05/14 07:10:44;;;;;;;14.45;5.50;;;;;;;17.12;60.99;98973.72;1803883;79;20931;-80
2022/05/14 07:13:14;;;;;;;13.30;4.80;;;;;;;17.16;60.84;98977.36;1804392;79;20908;-79
2022/05/14 07:15:52;;;;;;;11.75;5.67;;;;;;;17.22;61.23;98986.97;1805085;79;20979;-81
2022/05/14 07:18:22;;;;;;;12.90;5.73;;;;;;;17.23;60.55;98984.38;1803056;79;20951;-81
2022/05/14 07:21:02;;;;;;;12.45;5.33;;;;;;;17.25;60.31;98986.20;1804882;79;21007;-85
2022/05/14 07:23:39;;;;;;;15.80;6.60;;;;;;;17.26;60.26;98987.80;1805627;79;21183;-80
2022/05/14 07:26:15;;;;;;;18.23;6.12;;;;;;;17.30;59.93;98992.63;1805341;79;21019;-86
2022/05/14 07:28:46;;;;;;;22.45;7.78;;;;;;;17.31;59.56;98990.86;1805006;79;21046;-87
2022/05/14 07:31:14;;;;;;;20.15;6.78;;;;;;;17.35;60.14;98987.52;1802838;79;20964;-81
2022/05/14 07:33:41;;;;;;;16.48;6.58;;;;;;;17.44;59.44;98992.79;1764523;79;21007;-84
2022/05/14 07:36:17;;;;;;;15.05;7.10;;;;;;;17.52;58.82;98997.25;1806598;79;21148;-84
2022/05/14 07:38:46;;;;;;;24.20;7.60;;;;;;;17.54;57.01;98997.48;1805235;79;20974;-84
2022/05/14 07:41:16;;;;;;;20.20;7.33;;;;;;;17.51;56.53;98999.84;1777059;79;20976;-81
2022/05/14 07:43:47;;;;;;;18.95;8.75;;;;;;;17.54;56.09;99004.45;1806645;79;21027;-86
2022/05/14 07:46:21;;;;;;;17.87;8.83;;;;;;;17.55;55.43;99006.04;1806664;79;21432;-78
2022/05/14 07:48:48;;;;;;;22.67;8.55;;;;;;;17.55;55.56;99001.86;1803294;79;21122;-77
2022/05/14 07:51:15;;;;;;;16.75;8.15;;;;;;;17.52;54.67;99007.59;1803221;79;21023;-86
2022/05/14 07:53:41;;;;;;;20.72;9.20;;;;;;;17.47;54.35;99015.70;1805611;79;20949;-84
2022/05/14 07:56:09;;;;;;;21.48;9.23;;;;;;;17.39;54.21;99014.01;1805199;79;20920;-85
2022/05/14 07:58:37;;;;;;;19.50;9.48;;;;;;;17.35;53.97;99017.36;1805889;79;20963;-83
2022/05/14 08:01:04;;;;;;;21.05;9.70;;;;;;;17.33;54.09;99014.92;1806731;79;21241;-81
2022/05/14 08:03:33;;;;;;;19.52;10.15;;;;;;;17.35;53.85;99024.31;1781600;79;21007;-82
2022/05/14 08:06:01;;;;;;;25.82;10.55;;;;;;;17.32;53.32;99027.83;1808976;79;20963;-84
2022/05/14 08:08:33;;;;;;;24.77;12.03;;;;;;;17.28;53.10;99034.16;1809314;79;20947;-83
2022/05/14 08:10:59;;;;;;;27.73;12.45;;;;;;;17.23;52.97;99029.53;1809084;79;21002;-85
2022/05/14 08:13:29;;;;;;;24.80;12.30;;;;;;;17.19;53.36;99042.00;1806859;79;20915;-83
2022/05/14 08:15:59;;;;;;;27.42;12.73;;;;;;;17.14;53.54;99038.16;1808403;79;21231;-84
2022/05/14 08:18:29;;;;;;;36.68;12.78;;;;;;;17.10;53.39;99035.91;1808560;79;20943;-84
2022/05/14 08:24:29;;;;;;;29.70;13.53;;;;;;;17.07;53.47;99038.02;1808763;79;20832;-85
2022/05/14 08:26:15;;;;;;;26.57;12.20;;;;;;;16.95;53.94;99037.66;1809135;79;22498;-85
2022/05/14 08:28:45;;;;;;;28.55;12.07;;;;;;;16.89;54.64;99035.19;1808737;79;21133;-87
2022/05/14 08:31:12;;;;;;;27.60;11.90;;;;;;;16.90;55.21;99034.61;1808833;79;20896;-84
2022/05/14 08:33:40;;;;;;;27.10;11.57;;;;;;;16.87;55.21;99036.15;1808552;79;21003;-81
2022/05/14 08:36:10;;;;;;;31.90;10.95;;;;;;;16.85;55.71;99037.72;1809122;79;20962;-83
2022/05/14 08:38:40;;;;;;;29.42;11.65;;;;;;;16.87;55.91;99039.55;1805669;79;22090;-75
2022/05/14 08:41:08;;;;;;;38.48;12.82;;;;;;;16.88;55.94;99038.35;1787571;79;21358;-81
2022/05/14 08:43:46;;;;;;;39.67;13.62;;;;;;;16.92;56.05;99042.00;1795315;79;21485;-82
2022/05/14 08:46:20;;;;;;;29.55;12.43;;;;;;;16.98;55.93;99048.03;1802643;79;20994;-81
2022/05/14 08:48:52;;;;;;;25.65;10.72;;;;;;;17.01;55.72;99048.08;1806384;79;21003;-85
2022/05/14 08:51:24;;;;;;;32.58;11.78;;;;;;;17.08;55.48;99052.14;1807509;79;21898;-81
2022/05/14 08:53:56;;;;;;;22.80;10.98;;;;;;;17.10;55.27;99050.63;1804270;79;21093;-78
2022/05/14 08:56:45;;;;;;;27.32;11.93;;;;;;;17.14;55.32;99043.11;1804606;79;21050;-83
2022/05/14 08:59:43;;;;;;;27.55;11.80;;;;;;;17.19;55.13;99042.00;1807605;79;20992;-82
2022/05/14 09:02:18;;;;;;;21.12;10.30;;;;;;;17.25;55.44;99036.31;1774311;79;21030;-80
2022/05/14 09:04:45;;;;;;;20.50;9.98;;;;;;;17.32;55.07;99041.75;1805037;79;21625;-83
2022/05/14 09:07:13;;;;;;;20.95;9.45;;;;;;;17.37;54.33;99046.41;1805332;79;20907;-79
2022/05/14 09:09:55;;;;;;;24.57;9.40;;;;;;;17.38;53.85;99043.83;1805535;79;20979;-82
2022/05/14 09:12:27;;;;;;;24.15;10.13;;;;;;;17.39;53.18;99046.84;1804971;79;20892;-84
2022/05/14 09:15:00;;;;;;;28.12;11.78;;;;;;;17.40;53.10;99042.05;1787628;79;21474;-83
2022/05/14 09:17:30;;;;;;;24.95;10.95;;;;;;;17.39;53.49;99040.45;1802182;79;21224;-83
2022/05/14 09:20:11;;;;;;;22.80;10.32;;;;;;;17.38;52.32;99042.43;1798563;79;20903;-84
2022/05/14 09:22:47;;;;;;;21.80;9.50;;;;;;;17.40;52.03;99040.66;1802727;79;21033;-80
2022/05/14 09:25:29;;;;;;;17.35;9.75;;;;;;;17.47;52.12;99039.97;1804056;79;21547;-80
2022/05/14 09:28:05;;;;;;;18.52;8.63;;;;;;;17.58;52.19;99042.88;1798670;79;21652;-80
2022/05/14 09:30:55;;;;;;;22.80;9.73;;;;;;;17.69;51.67;99041.01;1781609;79;20968;-86
2022/05/14 09:33:44;;;;;;;21.23;10.60;;;;;;;17.79;52.18;99045.70;1723242;83;21113;-80
2022/05/14 09:36:15;;;;;;;26.07;10.63;;;;;;;17.88;51.78;99035.04;1789990;79;20971;-74
2022/05/14 09:38:42;;;;;;;24.75;10.05;;;;;;;18.01;51.37;99025.22;1765922;79;21726;-84
2022/05/14 09:41:18;;;;;;;23.47;11.08;;;;;;;18.22;52.51;99036.41;1794084;79;20975;-81
2022/05/14 09:43:47;;;;;;;19.07;8.93;;;;;;;18.47;51.94;99037.23;1754010;81;20900;-82
2022/05/14 09:46:28;;;;;;;20.40;9.88;;;;;;;18.76;50.14;99030.25;1780355;79;21010;-85
2022/05/14 09:49:05;;;;;;;21.15;9.20;;;;;;;18.95;49.44;99031.98;1750997;81;20998;-82
2022/05/14 09:52:04;;;;;;;17.23;7.67;;;;;;;19.05;48.08;99026.25;1804206;79;20923;-79
2022/05/14 09:54:46;;;;;;;21.42;9.63;;;;;;;19.06;48.76;99026.44;1742633;81;21010;-82
2022/05/14 09:57:49;;;;;;;10.30;6.30;;;;;;;19.07;48.97;99029.45;1790270;79;21104;-83
2022/05/14 10:00:39;;;;;;;20.88;7.55;;;;;;;19.05;47.49;99031.25;1781230;79;21510;-82
2022/05/14 10:03:50;;;;;;;12.75;6.50;;;;;;;18.89;46.26;99022.35;1762655;80;20955;-77
2022/05/14 10:06:35;;;;;;;17.70;5.85;;;;;;;18.73;46.72;99035.41;1787225;79;21495;-75
2022/05/14 10:09:13;;;;;;;10.32;4.83;;;;;;;18.58;46.85;99034.52;1768187;79;21037;-80
2022/05/14 10:11:45;;;;;;;11.22;4.55;;;;;;;18.53;47.01;99027.89;1788860;79;21791;-70
2022/05/14 10:15:04;;;;;;;10.20;5.42;;;;;;;18.57;47.63;99033.50;1799385;79;21059;-79
2022/05/14 10:18:19;;;;;;;10.25;5.60;;;;;;;18.59;48.21;99036.72;1779011;79;21040;-87
2022/05/14 10:21:32;;;;;;;11.50;5.50;;;;;;;18.58;47.21;99025.33;1775448;79;20976;-81
2022/05/14 10:27:46;;;;;;;10.05;4.58;;;;;;;18.53;47.99;99029.88;1790886;79;20999;-79
2022/05/14 10:30:25;;;;;;;9.68;3.62;;;;;;;18.58;48.05;99030.91;1807630;79;21003;-81
2022/05/14 10:33:03;;;;;;;12.85;4.00;;;;;;;18.67;48.19;99031.98;1804533;79;21039;-81
2022/05/14 10:35:42;;;;;;;18.27;4.30;;;;;;;18.76;47.86;99026.88;1807813;79;20999;-75
2022/05/14 10:38:33;;;;;;;6.78;3.22;;;;;;;18.80;47.77;99026.29;1780067;79;21011;-76
2022/05/14 10:41:06;;;;;;;9.28;3.33;;;;;;;18.87;47.90;99021.97;1807050;79;21507;-78
2022/05/14 10:43:46;;;;;;;8.43;3.40;;;;;;;18.90;48.13;99024.75;1805502;79;20971;-76
2022/05/14 10:46:21;;;;;;;11.80;3.62;;;;;;;18.96;47.63;99022.41;1799990;79;20952;-71
2022/05/14 10:48:57;;;;;;;7.22;3.05;;;;;;;19.02;47.05;99008.27;1792089;79;20993;-82
2022/05/14 10:51:32;;;;;;;7.67;3.02;;;;;;;19.09;47.28;99014.48;1807685;79;21517;-78
2022/05/14 10:54:22;;;;;;;4.60;2.27;;;;;;;19.19;47.65;99016.56;1782216;79;21225;-82
2022/05/14 10:57:06;;;;;;;;;;;;;;;19.28;46.71;99012.61;1809419;79;21025;-78
2022/05/14 10:59:48;;;;;;;4.50;2.30;;;;;;;19.34;46.69;99012.46;1802200;79;20169;-81
2022/05/14 11:02:34;;;;;;;5.53;1.70;;;;;;;19.42;47.38;99004.31;1805653;79;20952;-77
2022/05/14 11:05:01;;;;;;;6.90;2.10;;;;;;;19.55;46.05;98999.77;1786672;79;21023;-65
2022/05/14 11:07:48;;;;;;;6.00;1.65;;;;;;;19.62;45.15;99004.58;1811122;79;20912;-73
2022/05/14 11:10:30;;;;;;;3.47;1.72;;;;;;;19.64;44.55;99004.97;1808717;79;20940;-78
2022/05/14 11:13:13;;;;;;;6.92;1.42;;;;;;;19.61;44.16;99005.17;1811073;79;20946;-78
2022/05/14 11:15:41;;;;;;;3.57;1.53;;;;;;;19.58;43.36;99003.17;1756471;80;21038;-78
2022/05/14 11:18:16;;;;;;;5.50;1.70;;;;;;;19.52;43.31;99001.94;1800273;79;21439;-67
2022/05/14 11:21:00;;;;;;;6.60;1.40;;;;;;;19.55;44.16;99003.34;1807415;79;21775;-74
2022/05/14 11:23:30;;;;;;;10.50;1.80;;;;;;;19.65;44.28;98999.59;1803767;79;21058;-79
2022/05/14 11:26:12;;;;;;;7.80;2.15;;;;;;;19.70;43.62;99009.77;1774843;79;20959;-80
2022/05/14 11:28:44;;;;;;;9.70;2.50;;;;;;;19.66;43.64;99003.39;1780083;80;21038;-76
2022/05/14 11:31:24;;;;;;;3.33;2.12;;;;;;;19.67;43.66;99001.41;1757185;80;20983;-71
2022/05/14 11:33:54;;;;;;;7.97;2.60;;;;;;;19.65;43.49;99003.78;1779736;80;21258;-75
2022/05/14 11:36:48;;;;;;;3.87;1.90;;;;;;;19.64;44.17;99012.76;1782775;79;21528;-77
2022/05/14 11:39:39;;;;;;;7.90;2.27;;;;;;;19.76;44.40;99005.20;1738435;79;21007;-76
2022/05/14 11:42:28;;;;;;;6.47;2.30;;;;;;;19.92;44.32;99010.44;1792324;79;20949;-72
2022/05/14 11:45:04;;;;;;;7.10;3.47;;;;;;;19.92;44.74;99009.84;1794339;79;21484;-75
2022/05/14 11:48:06;;;;;;;12.65;4.08;;;;;;;19.81;43.73;99013.19;1793121;79;21831;-69
2022/05/14 11:50:53;;;;;;;8.90;4.37;;;;;;;19.74;43.62;99015.38;1811002;79;21417;-72
2022/05/14 11:53:32;;;;;;;;;;;;;;;19.54;43.24;99016.31;1814236;79;20908;-77
2022/05/14 11:56:28;;;;;;;10.45;5.22;;;;;;;19.28;43.05;99027.97;1811423;79;20090;-75
2022/05/14 11:59:00;;;;;;;7.80;5.00;;;;;;;19.08;43.30;99027.66;1811640;79;20979;-77
2022/05/14 12:05:03;;;;;;;15.83;3.80;;;;;;;18.72;43.83;99026.03;1732239;82;21063;-73
2022/05/14 12:07:57;;;;;;;10.30;3.40;;;;;;;18.49;44.52;99027.86;1737060;82;21004;-74
2022/05/14 12:11:13;;;;;;;7.70;2.60;;;;;;;18.38;45.32;99028.38;1728168;82;21079;-64
2022/05/14 12:14:08;;;;;;;5.20;1.82;;;;;;;18.30;45.17;99030.90;1713583;82;21050;-72
2022/05/14 12:16:54;;;;;;;5.85;1.72;;;;;;;18.24;45.35;99038.80;1673446;85;21484;-75
2022/05/14 12:19:31;;;;;;;9.55;1.60;;;;;;;18.19;45.56;99033.58;1674142;85;21107;-71
2022/05/14 12:22:04;;;;;;;3.85;1.80;;;;;;;18.16;46.10;99032.95;1689177;85;21453;-70
2022/05/14 12:24:39;;;;;;;2.90;1.40;;;;;;;18.21;46.55;99032.61;1673231;85;21043;-78